Terminal Aerodrome Forecast
Issued by NWS

Home | Current Version | Previous Version | Text Only | Print | Product List | Glossary On
Versions: 1 2 3 4 5 6 7 8 9 10 11 12 13 14 15 16 17 18 19 20 21 22 23 24 25 26 27 28
000
FTUS43 KDVN 241300 AAA
TAFCID
TAF AMD
KCID 241304Z 2413/2512 11010KT 6SM BR OVC010
      TEMPO 2413/2415 5SM BR OVC009
     FM241500 12014G23KT 6SM BR OVC008
     FM241900 11015G24KT 6SM -SHRA BR OVC014
     FM250000 12010KT 3SM RA BR OVC007
     FM250700 30008KT 5SM BR OVC004=

USA.gov is the U.S. government's official web portal to all federal, state and local government web resources and services.